大阪空港の過去48時間の天気

大阪空港 (Osaka/Intl)

現在時刻: 4/24 21:14 JST (4/24 12:14 UTC) 以下の時間は現地時間です。

過去48時間のMETAR気象情報
時間 風向 風速(m/s) 視程 気温(℃) 湿度(%) 気圧(hPa) 天気現象
24 20:00 東北東 4 8,000m 18 88 1006 弱いしゅう雨
24 19:00 4 7,000m 18 94 1006 弱いしゅう雨
24 18:00 4 6,000m 18 94 1006 弱いしゅう雨 もや
24 17:00 3 6,000m 18 94 1007 弱いしゅう雨 もや
24 16:00 2 5,000m 18 94 1008 弱いしゅう雨 もや
24 15:00 不定 1 7,000m 19 88 1008 弱いしゅう雨
24 14:00 不定 1 5,000m 18 94 1009 弱いしゅう雨 もや
24 13:00 南西 2 5,000m 18 94 1010 弱いしゅう雨 もや
24 12:39 南西 2 5,000m 18 88 1011 しゅう雨 もや
24 12:00 南南西 2 6,000m 18 88 1011 弱いしゅう雨 もや
24 11:00 南西 2 10km以上 20 68 1012 弱いしゅう雨
24 10:00 東北東 2 10km以上 21 56 1012 弱いしゅう雨
24 09:00 東北東 4 10km以上 20 60 1012
24 08:00 東北東 3 10km以上 20 60 1013
24 07:00 東南東 2 10km以上 20 60 1013 周辺でしゅう雨
24 06:00 東南東 3 10km以上 20 56 1013 弱い雨
24 05:00 南東 2 10km以上 20 56 1013
23 20:00 西南西 3 10km以上 21 49 1017
23 19:00 西南西 4 10km以上 21 49 1016
23 18:00 西南西 5 10km以上 21 46 1015
23 17:00 西南西 6 10km以上 22 43 1015
23 16:00 西南西 5 10km以上 23 38 1015
23 15:00 西南西 6 10km以上 24 36 1015
23 14:00 南西 6 10km以上 23 38 1016
23 13:00 西南西 5 10km以上 24 38 1017
23 12:00 西南西 5 10km以上 24 38 1017
23 11:00 西南西 4 10km以上 23 41 1018
23 10:00 南西 4 10km以上 22 43 1018
23 09:00 南南西 3 10km以上 21 49 1019
23 08:00 不定 1 10km以上 20 56 1019
23 07:00 北西 2 10km以上 17 63 1019
23 06:00 北西 1 10km以上 14 77 1019
23 05:00 不定 1 10km以上 14 72 1018
RJOO 241100Z 07007KT 040V100 8000 -SHRA FEW005 SCT025 BKN050 18/16 Q1006 RMK 1ST005 4CU025 6SC050 A2971
RJOO 241000Z 08007KT 7000 -SHRA FEW005 SCT025 BKN050 18/17 Q1006 RMK 1ST005 4CU025 6SC050 A2973
RJOO 240900Z 10007KT 6000 -SHRA BR FEW005 SCT025 BKN040 18/17 Q1006 RMK 1ST005 3CU025 6CU040 A2973
RJOO 240800Z 09006KT 050V120 6000 -SHRA BR FEW005 SCT025 BKN045 18/17 Q1007 RMK 1ST005 3CU025 6SC045 A2975
RJOO 240700Z 10004KT 030V130 5000 -SHRA BR FEW005 SCT020 BKN035 18/17 Q1008 RMK 1ST005 4CU020 6CU035 A2977
RJOO 240600Z VRB01KT 7000 -SHRA FEW007 SCT020 BKN040 19/17 Q1008 RMK 1ST007 3CU020 6CU040 A2978
RJOO 240500Z VRB02KT 5000 -SHRA BR FEW005 BKN020 BKN035 18/17 Q1009 RMK 1ST005 5CU020 6CU035 A2981
RJOO 240400Z 22003KT 130V250 5000 -SHRA BR FEW006 BKN025 BKN050 18/17 Q1010 RMK 1ST006 5CU025 6SC050 A2984
RJOO 240339Z 22004KT 160V270 5000 SHRA BR FEW003 BKN030 BKN050 18/16 Q1011 RMK 1ST003 5CU030 6SC050 A2985
RJOO 240300Z 21004KT 160V260 6000 -SHRA BR FEW003 BKN030 BKN050 18/16 Q1011 RMK 1ST003 5CU030 6SC050 A2987
RJOO 240200Z 22003KT 150V270 9999 -SHRA FEW005 BKN035 BKN060 20/14 Q1012 RMK 1ST005 5CU035 6SC060 A2990
RJOO 240100Z 07004KT 030V110 9999 -SHRA FEW025 BKN040 BKN060 21/12 Q1012 RMK 1CU025 5CU040 6SC060 A2990
RJOO 240000Z 07007KT 9999 FEW025 BKN050 20/12 Q1012 RMK 1CU025 7SC050 A2990
RJOO 232300Z 07005KT 030V110 9999 FEW030 BKN045 BKN100 20/12 Q1013 RMK 1CU030 5SC045 7AC100 A2992
RJOO 232200Z 11003KT 9999 VCSH FEW030 BKN050 BKN080 20/12 Q1013 RMK 1CU030 5SC050 7AC080 A2993
RJOO 232100Z 12005KT 9999 -RA FEW030 BKN045 20/11 Q1013 RMK 1CU030 7SC045 A2993
RJOO 232000Z 13004KT 9999 FEW030 BKN050 20/11 Q1013 RMK 1CU030 7SC050 A2993
RJOO 231100Z 25006KT 210V280 9999 FEW035 SCT060 BKN170 21/10 Q1017 RMK 1CU035 3SC060 5AC170 A3004
RJOO 231000Z 25008KT 220V290 9999 FEW035 SCT170 BKN/// 21/10 Q1016 RMK 1CU035 3AC170 A3002
RJOO 230900Z 25009KT 210V280 9999 FEW040 BKN160 BKN/// 21/09 Q1015 RMK 1CU040 5AC160 A3000
RJOO 230800Z 24011KT 220V300 9999 FEW040 BKN150 BKN/// 22/09 Q1015 RMK 1CU040 5AC150 A3000
RJOO 230700Z 24009KT 200V290 9999 FEW040 BKN/// 23/08 Q1015 RMK 1CU040 A2999
RJOO 230600Z 24011KT 210V270 9999 FEW040 BKN/// 24/08 Q1015 RMK 1CU040 A3000
RJOO 230500Z 23012KT 9999 FEW040 BKN/// 23/08 Q1016 RMK 1CU040 A3002
RJOO 230400Z 24010KT 210V280 9999 FEW040 BKN/// 24/09 Q1017 RMK 1CU040 A3003
RJOO 230300Z 24009KT 210V290 9999 FEW040 BKN/// 24/09 Q1017 RMK 1CU040 A3004
RJOO 230200Z 25008KT 210V290 9999 FEW040 BKN/// 23/09 Q1018 RMK 1CU040 A3006
RJOO 230100Z 22007KT 150V280 9999 FEW040 BKN/// 22/09 Q1018 RMK 1CU040 A3008
RJOO 230000Z 21005KT 110V280 9999 FEW040 BKN/// 21/10 Q1019
RJOO 222300Z VRB02KT CAVOK 20/11 Q1019 RMK A3010
RJOO 222200Z 31003KT 270V330 CAVOK 17/10 Q1019 RMK A3010
RJOO 222100Z 31001KT 9999 FEW030 14/10 Q1019 RMK 1CU030 A3010
RJOO 222000Z VRB02KT 9999 FEW030 14/09 Q1018 RMK 1CU030 A3008